createdAt,value
2019-05-02T00:02:28.944Z,99.90
2019-05-02T00:05:00.309Z,99.90
2019-05-02T00:07:31.647Z,99.90
2019-05-02T00:12:33.131Z,99.90
2019-05-02T00:15:06.224Z,99.90
2019-05-02T00:17:37.403Z,99.90
2019-05-02T00:20:10.015Z,99.90
2019-05-02T00:22:41.070Z,99.90
2019-05-02T00:25:16.002Z,99.90
2019-05-02T00:27:44.941Z,99.90
2019-05-02T00:30:17.199Z,99.90
2019-05-02T00:32:48.267Z,99.90
2019-05-02T00:35:19.323Z,99.90
2019-05-02T00:37:50.415Z,99.90
2019-05-02T00:40:25.857Z,99.90
2019-05-02T00:42:58.197Z,99.90
2019-05-02T00:45:28.219Z,99.90
2019-05-02T00:48:04.587Z,99.90
2019-05-02T00:50:40.585Z,99.90
2019-05-02T00:53:12.146Z,99.90
2019-05-02T00:58:14.093Z,99.90
2019-05-02T01:01:03.019Z,99.90
2019-05-02T01:03:35.712Z,99.90
2019-05-02T01:06:13.671Z,99.90
2019-05-02T01:08:40.882Z,99.90
2019-05-02T01:11:12.966Z,99.90
2019-05-02T01:13:43.961Z,99.90
2019-05-02T01:16:15.321Z,99.90
2019-05-02T01:18:47.620Z,99.90
2019-05-02T01:21:18.655Z,99.90
2019-05-02T01:23:49.643Z,99.90
2019-05-02T01:26:24.268Z,99.90
2019-05-02T01:29:03.746Z,99.90
2019-05-02T01:31:56.554Z,99.90
2019-05-02T01:34:54.357Z,99.90
2019-05-02T01:37:30.518Z,99.90
2019-05-02T01:40:01.521Z,99.90
2019-05-02T01:42:39.713Z,99.90
2019-05-02T01:47:37.499Z,99.90
2019-05-02T01:50:08.650Z,99.90
2019-05-02T01:52:39.747Z,99.90
2019-05-02T01:55:10.742Z,99.90
2019-05-02T01:57:44.759Z,99.90
2019-05-02T02:00:14.615Z,99.90
2019-05-02T02:05:15.964Z,99.90
2019-05-02T02:10:19.859Z,99.90
2019-05-02T02:13:02.905Z,99.90
2019-05-02T02:15:25.133Z,99.90
2019-05-02T02:17:55.663Z,99.90
2019-05-02T02:20:28.808Z,99.90
2019-05-02T02:25:55.731Z,99.90
2019-05-02T02:28:32.028Z,99.90
2019-05-02T02:31:04.825Z,99.90
2019-05-02T02:33:32.107Z,99.90
2019-05-02T02:36:03.429Z,99.90
2019-05-02T02:38:35.470Z,99.90
2019-05-02T02:43:38.580Z,99.90
2019-05-02T02:46:18.755Z,99.90
2019-05-02T02:48:49.762Z,99.90
2019-05-02T02:51:23.841Z,99.90
2019-05-02T02:54:03.164Z,99.90
2019-05-02T02:56:26.007Z,99.90
2019-05-02T02:58:57.082Z,99.90
2019-05-02T03:01:29.724Z,99.90
2019-05-02T03:04:02.024Z,99.90
2019-05-02T03:06:38.434Z,99.90
2019-05-02T03:09:07.251Z,99.90
2019-05-02T03:12:02.038Z,99.90
2019-05-02T03:14:31.499Z,99.90
2019-05-02T03:17:02.809Z,99.90
2019-05-02T03:19:33.839Z,99.90
2019-05-02T03:22:05.197Z,99.90
2019-05-02T03:24:43.833Z,99.90
2019-05-02T03:27:09.128Z,99.90
2019-05-02T03:29:44.098Z,99.90
2019-05-02T03:32:25.591Z,99.90
2019-05-02T03:34:52.402Z,99.90
2019-05-02T03:37:19.751Z,99.90
2019-05-02T03:42:22.843Z,99.90
2019-05-02T03:44:56.110Z,99.90
2019-05-02T03:47:26.984Z,99.90
2019-05-02T03:49:57.971Z,99.90
2019-05-02T03:52:29.095Z,99.90
2019-05-02T03:55:00.194Z,99.90
2019-05-02T03:57:35.758Z,99.90
2019-05-02T04:00:05.655Z,99.90
2019-05-02T04:02:38.108Z,99.90
2019-05-02T04:05:09.376Z,99.90
2019-05-02T04:07:42.344Z,99.90
2019-05-02T04:10:19.707Z,99.90
2019-05-02T04:12:53.291Z,99.90
2019-05-02T04:15:28.800Z,99.90
2019-05-02T04:17:56.798Z,99.90
2019-05-02T04:20:28.116Z,99.90
2019-05-02T04:23:00.599Z,99.90
2019-05-02T04:25:34.008Z,99.90
2019-05-02T04:28:05.908Z,99.90
2019-05-02T04:30:38.493Z,99.90
2019-05-02T04:33:09.475Z,99.90
2019-05-02T04:35:40.467Z,99.90
2019-05-02T04:38:20.405Z,99.90
2019-05-02T04:40:46.443Z,99.90
2019-05-02T04:45:56.053Z,99.90
2019-05-02T04:48:21.471Z,99.90
2019-05-02T04:51:01.963Z,99.90
2019-05-02T04:53:33.411Z,99.90
2019-05-02T04:56:05.130Z,99.90
2019-05-02T04:58:34.835Z,99.90
2019-05-02T05:01:04.277Z,99.90
2019-05-02T05:03:37.550Z,99.90
2019-05-02T05:06:12.085Z,99.90
2019-05-02T05:08:41.673Z,99.90
2019-05-02T05:11:13.843Z,99.90
2019-05-02T05:13:47.754Z,99.90
2019-05-02T05:16:18.787Z,99.90
2019-05-02T05:21:24.763Z,99.90
2019-05-02T05:24:18.283Z,99.90
2019-05-02T05:26:52.679Z,99.90
2019-05-02T05:29:23.675Z,99.90
2019-05-02T05:31:55.034Z,99.90
2019-05-02T05:34:28.605Z,99.90
2019-05-02T05:39:31.748Z,99.90
2019-05-02T05:42:02.767Z,99.90
2019-05-02T05:44:33.735Z,99.90
2019-05-02T05:47:04.707Z,99.90
2019-05-02T05:54:40.484Z,99.90
2019-05-02T05:57:12.220Z,99.90
2019-05-02T05:59:41.341Z,99.90
2019-05-02T06:02:14.743Z,99.90
2019-05-02T06:04:47.368Z,99.90
2019-05-02T06:07:20.184Z,99.90
2019-05-02T06:09:51.016Z,99.90
2019-05-02T06:12:26.048Z,99.90
2019-05-02T06:14:56.300Z,99.90
2019-05-02T06:19:59.003Z,99.90
2019-05-02T06:22:30.024Z,99.90
2019-05-02T06:27:35.803Z,99.90
2019-05-02T06:32:37.670Z,99.90
2019-05-02T06:35:09.050Z,99.90
2019-05-02T06:42:41.947Z,99.90
2019-05-02T06:47:43.615Z,99.90
2019-05-02T06:52:45.091Z,99.90
2019-05-02T06:55:16.536Z,99.90
2019-05-02T06:57:47.519Z,99.90
2019-05-02T07:00:19.203Z,99.90
2019-05-02T07:02:50.253Z,99.90
2019-05-02T07:05:21.334Z,99.90
2019-05-02T07:07:52.584Z,99.90
2019-05-02T07:10:25.397Z,99.90
2019-05-02T07:13:09.451Z,99.90
2019-05-02T07:16:03.310Z,99.90
2019-05-02T07:18:42.077Z,99.90
2019-05-02T07:21:12.094Z,99.90
2019-05-02T07:23:48.576Z,99.90
2019-05-02T07:26:21.366Z,99.90
2019-05-02T07:28:49.611Z,99.90
2019-05-02T07:31:20.583Z,99.90
2019-05-02T07:36:21.783Z,99.90
2019-05-02T07:43:56.320Z,99.90
2019-05-02T07:46:27.737Z,99.90
2019-05-02T07:48:58.807Z,99.90
2019-05-02T07:51:30.211Z,99.90
2019-05-02T07:54:01.311Z,99.90
2019-05-02T07:56:32.287Z,99.90
2019-05-02T07:59:03.340Z,99.90
2019-05-02T08:01:34.388Z,99.90
2019-05-02T08:04:11.110Z,99.90
2019-05-02T08:06:40.171Z,99.90
2019-05-02T08:11:41.292Z,99.90
2019-05-02T08:34:46.269Z,99.90
2019-05-02T08:37:16.376Z,99.90
2019-05-02T08:39:47.467Z,99.90
2019-05-02T08:42:18.459Z,99.90
2019-05-02T08:44:51.479Z,99.90
2019-05-02T08:49:55.137Z,99.90
2019-05-02T08:52:27.097Z,99.90
2019-05-02T08:54:58.110Z,99.90
2019-05-02T08:57:30.074Z,99.90
2019-05-02T09:00:01.742Z,99.90
2019-05-02T09:02:41.121Z,99.90
2019-05-02T09:05:07.037Z,99.90
2019-05-02T09:07:40.087Z,99.90
2019-05-02T09:10:12.080Z,99.90
2019-05-02T09:12:45.413Z,99.90
2019-05-02T09:15:17.017Z,99.90
2019-05-02T09:17:54.868Z,99.90
2019-05-02T09:20:23.454Z,99.90
2019-05-02T09:27:55.404Z,99.90
2019-05-02T09:30:26.499Z,99.90
2019-05-02T09:33:02.851Z,99.90
2019-05-02T09:35:30.187Z,99.90
2019-05-02T09:38:01.751Z,99.90
2019-05-02T09:40:32.935Z,99.90
2019-05-02T09:43:04.801Z,99.90
2019-05-02T09:45:37.566Z,99.90
2019-05-02T09:48:08.863Z,99.90
2019-05-02T09:50:41.969Z,99.90
2019-05-02T09:53:20.402Z,99.90
2019-05-02T09:55:58.120Z,99.90
2019-05-02T09:58:31.851Z,99.90
2019-05-02T10:01:18.447Z,99.90
2019-05-02T10:03:49.442Z,99.90
2019-05-02T10:06:22.955Z,99.90
2019-05-02T10:11:26.086Z,99.90
2019-05-02T10:16:27.517Z,99.90
2019-05-02T10:19:00.339Z,99.90
2019-05-02T10:21:31.810Z,98.30
2019-05-02T10:24:03.804Z,95.00
2019-05-02T10:26:34.926Z,89.60
2019-05-02T10:29:06.051Z,88.90
2019-05-02T10:31:37.821Z,90.10
2019-05-02T10:34:16.224Z,91.10
2019-05-02T10:36:45.167Z,89.90
2019-05-02T10:39:15.809Z,81.00
2019-05-02T10:46:56.077Z,82.10
2019-05-02T10:49:32.214Z,80.10
2019-05-02T10:52:03.302Z,77.50
2019-05-02T10:54:37.509Z,62.10
2019-05-02T10:57:07.377Z,63.50
2019-05-02T10:59:38.423Z,66.80
2019-05-02T11:02:35.084Z,63.40
2019-05-02T11:05:11.997Z,65.00
2019-05-02T11:07:43.001Z,63.30
2019-05-02T11:15:44.498Z,66.00
2019-05-02T11:18:17.959Z,66.00
2019-05-02T11:23:19.733Z,67.60
2019-05-02T11:25:52.665Z,68.10
2019-05-02T11:28:23.647Z,69.80
2019-05-02T11:35:57.535Z,64.80
2019-05-02T11:38:47.357Z,65.50
2019-05-02T11:41:02.781Z,69.90
2019-05-02T11:43:37.101Z,71.30
2019-05-02T11:46:07.390Z,70.60
2019-05-02T11:48:38.475Z,72.50
2019-05-02T11:51:12.754Z,76.00
2019-05-02T11:53:42.132Z,78.40
2019-05-02T11:56:13.503Z,80.20
2019-05-02T12:03:52.455Z,83.90
2019-05-02T12:06:23.711Z,85.90
2019-05-02T12:08:54.723Z,88.00
2019-05-02T12:11:25.744Z,90.30
2019-05-02T12:13:57.147Z,90.60
2019-05-02T12:16:28.305Z,88.80
2019-05-02T12:19:09.422Z,86.40
2019-05-02T12:21:32.503Z,80.20
2019-05-02T12:24:05.870Z,77.30
2019-05-02T12:29:07.324Z,75.00
2019-05-02T12:31:38.324Z,78.10
2019-05-02T12:34:09.413Z,80.30
2019-05-02T12:36:42.608Z,82.80
2019-05-02T12:41:44.567Z,85.40
2019-05-02T12:49:24.776Z,84.20
2019-05-02T12:51:48.639Z,83.60
2019-05-02T13:01:51.854Z,87.80
2019-05-02T13:06:53.898Z,87.10
2019-05-02T13:09:25.589Z,85.00
2019-05-02T13:14:38.241Z,85.90
2019-05-02T13:17:09.219Z,86.20
2019-05-02T13:22:29.598Z,91.00
2019-05-02T13:25:06.575Z,92.30
2019-05-02T13:27:44.190Z,91.60
2019-05-02T13:30:15.535Z,91.10
2019-05-02T13:32:53.761Z,87.70
2019-05-02T13:35:42.130Z,84.50
2019-05-02T13:38:14.944Z,86.80
2019-05-02T13:40:46.207Z,86.20
2019-05-02T13:43:17.663Z,86.10
2019-05-02T13:46:08.000Z,84.00
2019-05-02T13:48:39.151Z,80.60
2019-05-02T13:54:02.335Z,78.50
2019-05-02T13:56:52.418Z,79.90
2019-05-02T14:01:55.684Z,82.80
2019-05-02T14:04:27.023Z,83.80
2019-05-02T14:06:58.454Z,83.70
2019-05-02T14:12:32.090Z,76.80
2019-05-02T14:22:37.340Z,84.90
2019-05-02T14:25:09.630Z,86.90
2019-05-02T14:27:42.221Z,86.50
2019-05-02T14:30:16.263Z,86.70
2019-05-02T14:32:47.327Z,88.30
2019-05-02T14:35:27.988Z,87.70
2019-05-02T14:38:13.271Z,86.90
2019-05-02T14:41:04.111Z,83.80
2019-05-02T14:43:53.262Z,86.50
2019-05-02T14:51:33.097Z,90.30
2019-05-02T14:54:08.137Z,91.70
2019-05-02T14:56:57.063Z,90.10
2019-05-02T14:59:28.995Z,88.50
2019-05-02T15:02:03.922Z,90.20
2019-05-02T15:09:37.096Z,91.10
2019-05-02T15:12:15.799Z,91.90
2019-05-02T15:14:40.743Z,92.00
2019-05-02T15:19:43.043Z,75.90
2019-05-02T15:22:14.038Z,70.00
2019-05-02T15:24:45.031Z,73.40
2019-05-02T15:27:17.754Z,73.90
2019-05-02T15:29:48.655Z,77.40
2019-05-02T15:32:42.848Z,80.70
2019-05-02T15:35:45.399Z,79.10
2019-05-02T15:38:24.210Z,81.00
2019-05-02T15:40:51.531Z,80.70
2019-05-02T15:48:27.475Z,85.40
2019-05-02T15:51:00.096Z,88.10
2019-05-02T15:53:46.719Z,86.40
2019-05-02T15:56:19.763Z,87.10
2019-05-02T15:58:46.187Z,89.60
2019-05-02T16:01:41.603Z,90.20
2019-05-02T16:04:17.136Z,92.00
2019-05-02T16:06:45.692Z,92.40
2019-05-02T16:11:53.250Z,94.50
2019-05-02T16:14:22.538Z,95.30
2019-05-02T16:16:53.986Z,95.20
2019-05-02T16:22:11.498Z,96.90
2019-05-02T16:24:43.875Z,95.60
2019-05-02T16:27:16.483Z,95.20
2019-05-02T16:29:48.175Z,95.80
2019-05-02T16:32:35.675Z,96.60
2019-05-02T16:35:15.317Z,96.50
2019-05-02T16:37:42.088Z,95.10
2019-05-02T16:40:14.188Z,95.20
2019-05-02T16:45:16.431Z,97.80
2019-05-02T16:47:49.860Z,99.00
2019-05-02T16:50:20.525Z,98.00
2019-05-02T16:52:53.063Z,98.10
2019-05-02T16:55:26.600Z,99.90
2019-05-02T17:00:31.848Z,99.90
2019-05-02T17:03:03.830Z,99.90
2019-05-02T17:05:39.504Z,99.90
2019-05-02T17:08:33.227Z,99.90
2019-05-02T17:11:09.229Z,99.90
2019-05-02T17:13:41.824Z,99.90
2019-05-02T17:16:16.992Z,99.90
2019-05-02T17:18:48.344Z,99.90
2019-05-02T17:21:18.173Z,99.90
2019-05-02T17:23:51.823Z,99.90
2019-05-02T17:26:22.836Z,99.90
2019-05-02T17:28:53.983Z,99.90
2019-05-02T17:31:24.970Z,99.90
2019-05-02T17:36:28.439Z,99.90
2019-05-02T17:38:59.470Z,99.90
2019-05-02T17:44:18.379Z,99.90
2019-05-02T17:46:50.887Z,99.90
2019-05-02T17:52:18.615Z,99.90
2019-05-02T17:57:13.915Z,99.90
2019-05-02T18:00:07.547Z,99.90
2019-05-02T18:02:42.268Z,99.90
2019-05-02T18:05:13.529Z,99.90
2019-05-02T18:10:20.671Z,99.90
2019-05-02T18:12:55.868Z,99.90
2019-05-02T18:15:20.239Z,99.90
2019-05-02T18:17:52.379Z,99.90
2019-05-02T18:20:25.353Z,99.90
2019-05-02T18:22:56.064Z,99.90
2019-05-02T18:25:27.082Z,99.90
2019-05-02T18:27:58.075Z,99.90
2019-05-02T18:30:29.147Z,99.90
2019-05-02T18:35:32.542Z,99.90
2019-05-02T18:45:36.383Z,99.90
2019-05-02T18:48:07.487Z,99.90
2019-05-02T18:53:13.757Z,99.90
2019-05-02T18:55:44.982Z,99.90
2019-05-02T18:58:15.992Z,99.90
2019-05-02T19:00:47.015Z,99.90
2019-05-02T19:03:19.190Z,99.90
2019-05-02T19:05:51.496Z,99.90
2019-05-02T19:08:31.145Z,99.90
2019-05-02T19:11:06.978Z,99.90
2019-05-02T19:13:30.734Z,99.90
2019-05-02T19:18:32.939Z,99.90
2019-05-02T19:21:05.011Z,99.90
2019-05-02T19:23:37.052Z,99.90
2019-05-02T19:26:12.380Z,99.90
2019-05-02T19:28:47.267Z,99.90
2019-05-02T19:31:18.410Z,99.90
2019-05-02T19:33:49.396Z,99.90
2019-05-02T19:36:24.370Z,99.90
2019-05-02T19:38:57.370Z,99.90
2019-05-02T19:41:25.646Z,99.90
2019-05-02T19:43:56.727Z,99.90
2019-05-02T19:46:34.736Z,99.90
2019-05-02T19:49:02.119Z,99.90
2019-05-02T19:56:43.902Z,99.90
2019-05-02T19:59:08.659Z,99.90
2019-05-02T20:01:39.667Z,99.90
2019-05-02T20:06:42.774Z,99.90
2019-05-02T20:09:13.769Z,99.90
2019-05-02T20:11:44.856Z,99.90
2019-05-02T20:14:15.839Z,99.90
2019-05-02T20:16:52.803Z,99.90
2019-05-02T20:19:26.915Z,99.90
2019-05-02T20:22:15.219Z,99.90
2019-05-02T20:25:01.239Z,99.90
2019-05-02T20:27:33.021Z,99.90
2019-05-02T20:32:34.851Z,99.90
2019-05-02T20:35:06.407Z,99.90
2019-05-02T20:42:38.783Z,99.90
2019-05-02T20:45:11.560Z,99.90
2019-05-02T20:47:42.788Z,99.90
2019-05-02T20:50:13.831Z,99.90
2019-05-02T20:52:45.179Z,99.90
2019-05-02T20:55:16.495Z,99.90
2019-05-02T20:57:48.340Z,99.90
2019-05-02T21:00:23.595Z,99.90
2019-05-02T21:02:54.731Z,99.90
2019-05-02T21:05:32.562Z,99.90
2019-05-02T21:13:29.978Z,99.90
2019-05-02T21:16:02.916Z,99.90
2019-05-02T21:21:17.272Z,99.90
2019-05-02T21:23:48.575Z,99.90
2019-05-02T21:26:19.575Z,99.90
2019-05-02T21:28:52.193Z,99.90
2019-05-02T21:31:24.391Z,99.90
2019-05-02T21:36:25.626Z,99.90
2019-05-02T21:38:56.636Z,99.90
2019-05-02T21:41:27.660Z,99.90
2019-05-02T21:43:58.653Z,99.90
2019-05-02T21:49:00.187Z,99.90
2019-05-02T21:51:51.813Z,99.90
2019-05-02T21:54:52.177Z,99.90
2019-05-02T21:57:23.271Z,99.90
2019-05-02T21:59:58.237Z,99.90
2019-05-02T22:02:29.766Z,99.90
2019-05-02T22:05:02.215Z,99.90
2019-05-02T22:07:34.455Z,99.90
2019-05-02T22:10:06.623Z,99.90
2019-05-02T22:15:12.729Z,99.90
2019-05-02T22:17:43.883Z,99.90
2019-05-02T22:20:15.059Z,99.90
2019-05-02T22:22:46.087Z,99.90
2019-05-02T22:27:47.267Z,99.90
2019-05-02T22:30:19.343Z,99.90
2019-05-02T22:32:51.693Z,99.90
2019-05-02T22:35:23.039Z,99.90
2019-05-02T22:40:26.214Z,99.90
2019-05-02T22:45:27.568Z,99.90
2019-05-02T22:47:58.624Z,99.90
2019-05-02T22:50:29.627Z,99.90
2019-05-02T22:53:00.696Z,99.90
2019-05-02T22:55:32.025Z,99.90
2019-05-02T22:58:03.107Z,99.90
2019-05-02T23:05:34.579Z,99.90
2019-05-02T23:10:36.330Z,99.90
2019-05-02T23:13:07.455Z,99.90
2019-05-02T23:15:38.529Z,99.90
2019-05-02T23:18:09.583Z,99.90
2019-05-02T23:20:42.166Z,99.90
2019-05-02T23:26:22.454Z,99.90
2019-05-02T23:28:53.610Z,99.90
2019-05-02T23:31:24.643Z,99.90
2019-05-02T23:33:58.653Z,99.90
2019-05-02T23:36:32.241Z,99.90
2019-05-02T23:39:04.451Z,99.90
2019-05-02T23:41:36.067Z,99.90
2019-05-02T23:44:07.194Z,99.90
2019-05-02T23:46:38.149Z,99.90
2019-05-02T23:49:09.560Z,99.90
2019-05-02T23:51:42.501Z,99.90
2019-05-02T23:54:13.250Z,99.90
2019-05-02T23:56:44.255Z,99.90
2019-05-02T23:59:15.250Z,99.90
